Time;durP1;ratioP1;P1;durP2;ratioP2;P2;SDS_P1;SDS_P2;PMS_P1;PMS_P2;Temp;Humidity;BMP_temperature;BMP_pressure;BME280_temperature;BME280_humidity;BME280_pressure;Samples;Min_cycle;Max_cycle;Signal;HPM_P1;HPM_P2
2022/11/15 00:02:26;;;;;;;29.35;20.35;;;;;;;;;;5111292;27;20046;-66
2022/11/15 00:04:52;;;;;;;29.63;22.27;;;;;;;;;;5116323;27;20115;-66
2022/11/15 00:07:18;;;;;;;27.27;21.55;;;;;;;;;;5108293;27;20071;-68
2022/11/15 00:09:44;;;;;;;28.45;22.10;;;;;;;;;;5108239;27;20036;-67
2022/11/15 00:12:10;;;;;;;27.75;21.63;;;;;;;;;;5108500;27;20379;-66
2022/11/15 00:14:36;;;;;;;27.90;21.45;;;;;;;;;;5113371;27;20075;-67
2022/11/15 00:17:02;;;;;;;27.23;20.98;;;;;;;;;;5107268;27;20528;-67
2022/11/15 00:19:28;;;;;;;27.48;21.20;;;;;;;;;;5100596;28;20040;-67
2022/11/15 00:21:54;;;;;;;28.92;21.95;;;;;;;;;;5116339;27;20126;-67
2022/11/15 00:24:20;;;;;;;27.45;21.33;;;;;;;;;;5107884;27;20051;-66
2022/11/15 00:26:46;;;;;;;29.75;22.17;;;;;;;;;;5109359;27;20063;-66
2022/11/15 00:29:12;;;;;;;29.42;21.38;;;;;;;;;;5109196;27;20048;-68
2022/11/15 00:31:38;;;;;;;28.88;21.90;;;;;;;;;;5098564;27;20074;-68
2022/11/15 00:34:04;;;;;;;29.10;22.48;;;;;;;;;;5110028;27;20116;-68
2022/11/15 00:36:33;;;;;;;28.92;21.95;;;;;;;;;;5103938;27;20528;-68
2022/11/15 00:38:59;;;;;;;31.42;22.35;;;;;;;;;;5115304;27;20074;-68
2022/11/15 00:41:25;;;;;;;28.92;21.45;;;;;;;;;;5113907;27;20074;-67
2022/11/15 00:43:51;;;;;;;29.80;21.58;;;;;;;;;;5110496;27;20501;-66
2022/11/15 00:46:17;;;;;;;30.83;21.85;;;;;;;;;;5113463;27;20040;-66
2022/11/15 00:48:43;;;;;;;34.83;22.38;;;;;;;;;;5097736;27;20108;-67
2022/11/15 00:51:09;;;;;;;29.90;21.00;;;;;;;;;;5104616;28;20050;-68
2022/11/15 00:53:35;;;;;;;31.52;21.38;;;;;;;;;;5102263;27;20558;-68
2022/11/15 00:56:01;;;;;;;29.30;21.25;;;;;;;;;;5099815;28;20126;-68
2022/11/15 00:58:26;;;;;;;31.02;21.42;;;;;;;;;;5103525;27;20040;-68
2022/11/15 01:00:53;;;;;;;32.10;21.42;;;;;;;;;;5103687;27;20039;-68
2022/11/15 01:03:19;;;;;;;32.75;20.88;;;;;;;;;;5110693;27;20086;-68
2022/11/15 01:05:44;;;;;;;31.17;20.90;;;;;;;;;;5102763;28;20097;-68
2022/11/15 01:08:13;;;;;;;29.25;21.27;;;;;;;;;;5105886;27;20076;-68
2022/11/15 01:10:39;;;;;;;33.10;21.45;;;;;;;;;;5101971;27;20044;-68
2022/11/15 01:13:04;;;;;;;34.30;22.23;;;;;;;;;;5121070;27;20181;-68
2022/11/15 01:15:30;;;;;;;33.13;22.52;;;;;;;;;;5109633;27;20031;-69
2022/11/15 01:17:56;;;;;;;35.22;22.40;;;;;;;;;;5105852;27;20040;-68
2022/11/15 01:20:22;;;;;;;36.13;22.80;;;;;;;;;;5102226;27;20110;-68
2022/11/15 01:22:48;;;;;;;39.40;24.00;;;;;;;;;;5104649;27;20051;-68
2022/11/15 01:25:14;;;;;;;36.13;22.60;;;;;;;;;;5109873;27;20054;-68
2022/11/15 01:27:40;;;;;;;32.33;22.75;;;;;;;;;;5092943;28;20050;-68
2022/11/15 01:30:08;;;;;;;32.75;23.30;;;;;;;;;;5108453;27;20345;-68
2022/11/15 01:32:34;;;;;;;36.15;23.13;;;;;;;;;;5105463;27;20054;-67
2022/11/15 01:34:59;;;;;;;33.92;22.85;;;;;;;;;;5108918;27;20397;-68
2022/11/15 01:37:26;;;;;;;36.20;23.52;;;;;;;;;;5113250;27;20043;-69
2022/11/15 01:39:51;;;;;;;33.72;23.42;;;;;;;;;;5111662;27;20051;-68
2022/11/15 01:42:18;;;;;;;34.40;23.25;;;;;;;;;;5107144;27;20048;-69
2022/11/15 01:44:47;;;;;;;37.42;22.80;;;;;;;;;;5114300;27;20039;-68
2022/11/15 01:47:16;;;;;;;30.80;22.60;;;;;;;;;;5106611;28;20493;-67
2022/11/15 01:49:55;;;;;;;35.97;23.63;;;;;;;;;;5105861;28;20533;-68
2022/11/15 01:52:22;;;;;;;34.30;21.83;;;;;;;;;;5094165;27;20089;-68
2022/11/15 01:54:55;;;;;;;34.97;22.98;;;;;;;;;;5109783;27;20063;-68
2022/11/15 01:57:21;;;;;;;31.73;21.88;;;;;;;;;;5105549;27;20047;-68
2022/11/15 01:59:47;;;;;;;33.88;21.33;;;;;;;;;;5111043;27;20067;-68
2022/11/15 02:02:13;;;;;;;35.67;22.02;;;;;;;;;;5089133;28;20076;-68
2022/11/15 02:04:47;;;;;;;32.42;21.80;;;;;;;;;;5108473;27;20078;-68
2022/11/15 02:07:15;;;;;;;35.20;21.60;;;;;;;;;;5100979;28;20445;-68
2022/11/15 02:09:41;;;;;;;34.30;22.30;;;;;;;;;;5115345;27;20497;-67
2022/11/15 02:12:08;;;;;;;31.50;21.85;;;;;;;;;;5106336;27;20042;-67
2022/11/15 02:14:35;;;;;;;33.13;21.00;;;;;;;;;;5111177;28;20078;-68
2022/11/15 02:17:01;;;;;;;33.20;21.88;;;;;;;;;;5112638;28;20039;-69
2022/11/15 02:19:30;;;;;;;36.38;21.90;;;;;;;;;;5105811;28;20752;-69
2022/11/15 02:22:13;;;;;;;34.33;22.27;;;;;;;;;;5105901;28;20696;-69
2022/11/15 02:24:38;;;;;;;35.20;21.80;;;;;;;;;;5106450;28;20047;-68
2022/11/15 02:27:04;;;;;;;39.03;22.77;;;;;;;;;;5112003;28;20508;-68
2022/11/15 02:29:37;;;;;;;40.00;22.58;;;;;;;;;;5115035;28;20074;-68
2022/11/15 02:32:07;;;;;;;41.88;23.08;;;;;;;;;;5112933;28;20074;-68
2022/11/15 02:34:36;;;;;;;44.95;24.45;;;;;;;;;;5102202;28;20051;-69
2022/11/15 02:37:19;;;;;;;40.95;23.02;;;;;;;;;;5106695;28;20047;-67
2022/11/15 02:40:03;;;;;;;42.33;23.98;;;;;;;;;;5096803;28;20040;-69
2022/11/15 02:45:19;;;;;;;48.85;24.95;;;;;;;;;;5108208;28;20039;-68
2022/11/15 02:47:47;;;;;;;49.42;25.52;;;;;;;;;;5104093;28;20039;-68
2022/11/15 02:50:16;;;;;;;46.22;25.63;;;;;;;;;;5109227;28;20044;-69
2022/11/15 02:52:45;;;;;;;55.10;26.92;;;;;;;;;;5116584;27;20039;-68
2022/11/15 02:55:27;;;;;;;53.40;26.45;;;;;;;;;;5122000;27;20038;-66
2022/11/15 02:57:56;;;;;;;53.53;26.02;;;;;;;;;;5111026;27;20386;-68
2022/11/15 03:00:22;;;;;;;57.20;26.90;;;;;;;;;;5119208;27;20130;-68
2022/11/15 03:03:13;;;;;;;52.08;26.92;;;;;;;;;;5116489;27;20472;-68
2022/11/15 03:05:45;;;;;;;52.45;27.48;;;;;;;;;;5116878;27;20499;-68
2022/11/15 03:08:30;;;;;;;55.15;27.60;;;;;;;;;;5102637;27;20052;-68
2022/11/15 03:11:07;;;;;;;53.00;26.42;;;;;;;;;;5112040;27;20051;-69
2022/11/15 03:13:41;;;;;;;60.00;29.75;;;;;;;;;;5113889;27;20047;-68
2022/11/15 03:16:15;;;;;;;59.47;27.95;;;;;;;;;;5108786;27;20040;-67
2022/11/15 03:18:44;;;;;;;56.63;27.55;;;;;;;;;;5110199;28;20393;-69
2022/11/15 03:21:12;;;;;;;63.58;28.88;;;;;;;;;;5102618;28;20526;-67
2022/11/15 03:23:39;;;;;;;69.18;29.90;;;;;;;;;;5114854;27;20643;-69
2022/11/15 03:26:07;;;;;;;62.42;29.73;;;;;;;;;;5103852;27;20130;-68
2022/11/15 03:28:35;;;;;;;62.55;30.25;;;;;;;;;;5110348;27;20039;-68
2022/11/15 03:31:46;;;;;;;68.10;30.83;;;;;;;;;;5106551;27;20050;-68
2022/11/15 03:33:49;;;;;;;65.47;32.63;;;;;;;;;;5098159;27;20501;-67
2022/11/15 03:36:16;;;;;;;64.78;32.33;;;;;;;;;;5108825;27;20044;-68
2022/11/15 03:38:42;;;;;;;70.03;33.83;;;;;;;;;;5104231;27;20054;-69
2022/11/15 03:41:14;;;;;;;74.88;32.95;;;;;;;;;;5105503;27;20569;-68
2022/11/15 03:43:43;;;;;;;71.60;33.80;;;;;;;;;;5107064;27;20505;-67
2022/11/15 03:46:19;;;;;;;76.45;34.15;;;;;;;;;;5109471;27;20062;-68
2022/11/15 03:48:52;;;;;;;85.88;36.00;;;;;;;;;;5109517;27;20046;-67
2022/11/15 03:51:19;;;;;;;70.93;34.08;;;;;;;;;;5107591;27;20044;-68
2022/11/15 03:53:45;;;;;;;75.85;35.38;;;;;;;;;;5104398;27;20071;-65
2022/11/15 03:56:11;;;;;;;90.78;35.72;;;;;;;;;;5119807;27;20047;-68
2022/11/15 03:58:37;;;;;;;84.10;37.72;;;;;;;;;;5114801;27;20044;-68
2022/11/15 04:01:03;;;;;;;98.50;38.00;;;;;;;;;;5111909;27;20122;-68
2022/11/15 04:03:30;;;;;;;84.20;36.60;;;;;;;;;;5091364;28;20040;-68
2022/11/15 04:05:56;;;;;;;80.63;37.03;;;;;;;;;;5106058;27;20039;-68
2022/11/15 04:08:21;;;;;;;80.55;36.83;;;;;;;;;;5116776;27;20406;-68
2022/11/15 04:10:49;;;;;;;90.80;38.83;;;;;;;;;;5109614;27;20052;-68
2022/11/15 04:13:15;;;;;;;92.22;39.60;;;;;;;;;;5106621;27;20098;-68
2022/11/15 04:15:41;;;;;;;93.80;39.08;;;;;;;;;;5107973;27;20468;-68
2022/11/15 04:18:07;;;;;;;97.45;40.72;;;;;;;;;;5118375;27;20085;-68
2022/11/15 04:26:23;;;;;;;92.15;40.08;;;;;;;;;;5110596;27;20059;-67
2022/11/15 04:31:33;;;;;;;98.22;40.83;;;;;;;;;;5104115;28;20044;-69
2022/11/15 04:33:59;;;;;;;109.07;42.15;;;;;;;;;;5101191;27;20136;-68
2022/11/15 04:39:10;;;;;;;114.10;42.65;;;;;;;;;;5107157;27;20031;-67
2022/11/15 04:41:36;;;;;;;102.32;43.00;;;;;;;;;;5105915;27;20047;-68
2022/11/15 04:44:02;;;;;;;102.57;44.50;;;;;;;;;;5115282;27;20044;-68
2022/11/15 04:46:28;;;;;;;107.90;44.80;;;;;;;;;;5107504;27;20229;-68
2022/11/15 04:48:54;;;;;;;104.13;44.38;;;;;;;;;;5105559;27;20051;-68
2022/11/15 04:51:21;;;;;;;95.28;43.55;;;;;;;;;;5108365;27;20058;-65
2022/11/15 04:53:47;;;;;;;105.15;44.83;;;;;;;;;;5108006;27;20073;-67
2022/11/15 04:56:13;;;;;;;116.97;47.53;;;;;;;;;;5112452;27;20043;-66
2022/11/15 04:58:39;;;;;;;106.18;45.45;;;;;;;;;;5112707;27;20063;-66
2022/11/15 05:01:08;;;;;;;99.38;45.05;;;;;;;;;;5115432;27;20390;-67
2022/11/15 05:06:19;;;;;;;106.68;45.08;;;;;;;;;;5115813;27;20036;-66
2022/11/15 05:08:45;;;;;;;100.07;45.53;;;;;;;;;;5117395;27;20045;-67
2022/11/15 05:11:11;;;;;;;109.70;45.90;;;;;;;;;;5104454;27;20114;-68
2022/11/15 05:13:37;;;;;;;102.00;45.83;;;;;;;;;;5104345;27;20121;-69
2022/11/15 05:16:03;;;;;;;109.43;45.67;;;;;;;;;;5106867;27;20032;-68
2022/11/15 05:18:29;;;;;;;99.78;45.03;;;;;;;;;;5104329;27;20048;-68
2022/11/15 05:20:55;;;;;;;96.90;45.03;;;;;;;;;;5107678;27;20051;-68
2022/11/15 05:23:21;;;;;;;96.22;44.65;;;;;;;;;;5114289;27;20092;-68
2022/11/15 05:25:47;;;;;;;92.43;44.33;;;;;;;;;;5113041;27;20041;-68
2022/11/15 05:28:13;;;;;;;77.53;42.47;;;;;;;;;;5102988;27;20486;-68
2022/11/15 05:30:39;;;;;;;85.45;42.28;;;;;;;;;;5102356;28;20073;-68
2022/11/15 05:33:05;;;;;;;82.65;42.83;;;;;;;;;;5102909;28;20082;-68
2022/11/15 05:35:36;;;;;;;81.35;41.50;;;;;;;;;;5106758;27;20043;-68
2022/11/15 05:38:03;;;;;;;81.72;41.03;;;;;;;;;;5107399;27;20044;-68
2022/11/15 05:40:29;;;;;;;77.07;40.00;;;;;;;;;;5109950;27;20066;-67
2022/11/15 05:42:55;;;;;;;73.78;39.75;;;;;;;;;;5111890;27;20035;-68
2022/11/15 05:45:22;;;;;;;76.57;40.72;;;;;;;;;;5114176;27;20047;-68
2022/11/15 05:47:48;;;;;;;74.20;39.88;;;;;;;;;;5104579;27;20050;-66
2022/11/15 05:50:17;;;;;;;67.97;38.78;;;;;;;;;;5109506;27;20063;-67
2022/11/15 05:52:43;;;;;;;78.00;39.42;;;;;;;;;;5103435;27;20048;-67
2022/11/15 05:55:10;;;;;;;74.88;39.67;;;;;;;;;;5104743;27;20032;-68
2022/11/15 05:57:36;;;;;;;77.53;38.97;;;;;;;;;;5097560;28;20048;-68
2022/11/15 06:00:02;;;;;;;76.28;38.90;;;;;;;;;;5097401;27;20056;-66
2022/11/15 06:02:28;;;;;;;73.47;39.08;;;;;;;;;;5106050;27;20039;-69
2022/11/15 06:04:54;;;;;;;73.00;38.88;;;;;;;;;;5109082;27;20049;-68
2022/11/15 06:07:20;;;;;;;73.03;38.55;;;;;;;;;;5109937;27;20086;-68
2022/11/15 06:09:46;;;;;;;72.53;38.00;;;;;;;;;;5106662;28;20067;-68
2022/11/15 06:12:12;;;;;;;75.65;38.30;;;;;;;;;;5105033;27;20450;-68
2022/11/15 06:14:38;;;;;;;72.80;38.55;;;;;;;;;;5106173;27;20105;-68
2022/11/15 06:17:04;;;;;;;78.65;38.15;;;;;;;;;;5107755;28;20081;-68
2022/11/15 06:19:32;;;;;;;72.40;37.42;;;;;;;;;;5104015;28;20094;-68
2022/11/15 06:21:59;;;;;;;70.68;37.35;;;;;;;;;;5103680;28;20043;-69
2022/11/15 06:24:25;;;;;;;76.85;36.70;;;;;;;;;;5100798;28;20467;-68
2022/11/15 06:26:51;;;;;;;68.07;36.10;;;;;;;;;;5096782;28;22010;-68
2022/11/15 06:29:17;;;;;;;74.28;37.55;;;;;;;;;;5100200;27;20054;-68
2022/11/15 06:31:43;;;;;;;75.82;36.75;;;;;;;;;;5101409;27;20047;-66
2022/11/15 06:34:09;;;;;;;65.63;36.92;;;;;;;;;;5105649;27;20047;-66
2022/11/15 06:36:36;;;;;;;72.93;36.72;;;;;;;;;;5101950;27;20127;-68
2022/11/15 06:39:02;;;;;;;61.78;34.72;;;;;;;;;;5105532;27;20047;-68
2022/11/15 06:41:28;;;;;;;72.75;35.10;;;;;;;;;;5109603;27;20039;-68
2022/11/15 06:43:54;;;;;;;67.68;35.53;;;;;;;;;;5098585;28;20051;-67
2022/11/15 06:46:20;;;;;;;65.85;35.05;;;;;;;;;;5104652;27;20044;-68
2022/11/15 06:48:46;;;;;;;68.55;34.47;;;;;;;;;;5110271;27;20043;-66
2022/11/15 06:51:12;;;;;;;65.43;34.47;;;;;;;;;;5106657;27;20067;-67
2022/11/15 06:53:38;;;;;;;59.35;34.65;;;;;;;;;;5103230;27;20128;-67
2022/11/15 06:56:05;;;;;;;59.08;32.80;;;;;;;;;;5097304;27;20047;-69
2022/11/15 06:58:32;;;;;;;59.92;33.03;;;;;;;;;;5082245;28;20047;-68
2022/11/15 07:01:02;;;;;;;57.75;32.90;;;;;;;;;;5118361;27;20042;-68
2022/11/15 07:03:29;;;;;;;54.35;32.17;;;;;;;;;;5114567;27;20072;-68
2022/11/15 07:05:55;;;;;;;63.08;33.35;;;;;;;;;;5098087;27;20674;-68
2022/11/15 07:08:22;;;;;;;53.17;32.15;;;;;;;;;;5102714;27;20063;-69
2022/11/15 07:10:49;;;;;;;57.63;33.40;;;;;;;;;;5114790;27;20031;-67
2022/11/15 07:13:15;;;;;;;55.50;32.63;;;;;;;;;;5106703;27;20763;-69
2022/11/15 07:15:41;;;;;;;53.35;31.60;;;;;;;;;;5108600;27;20093;-66
2022/11/15 07:18:07;;;;;;;54.60;31.60;;;;;;;;;;5116109;27;20043;-69
2022/11/15 07:20:33;;;;;;;53.55;30.40;;;;;;;;;;5111145;27;20043;-67
2022/11/15 07:23:05;;;;;;;50.75;31.17;;;;;;;;;;5106363;27;20444;-66
2022/11/15 07:25:31;;;;;;;53.22;31.38;;;;;;;;;;5116471;27;20040;-66
2022/11/15 07:27:58;;;;;;;55.03;30.88;;;;;;;;;;5113476;27;20436;-66
2022/11/15 07:30:24;;;;;;;47.28;30.30;;;;;;;;;;5110916;27;20040;-67
2022/11/15 07:32:57;;;;;;;49.53;30.48;;;;;;;;;;5116120;27;20035;-66
2022/11/15 07:35:23;;;;;;;;;;;;;;;;;;5113293;27;20036;-66
2022/11/15 07:37:56;;;;;;;52.85;30.85;;;;;;;;;;5100738;28;19923;-68
2022/11/15 07:40:23;;;;;;;45.63;29.38;;;;;;;;;;5115162;27;20051;-66
2022/11/15 07:42:56;;;;;;;47.83;28.85;;;;;;;;;;5102206;27;20444;-66
2022/11/15 07:45:23;;;;;;;48.67;31.17;;;;;;;;;;5119798;27;20052;-66
2022/11/15 07:47:49;;;;;;;48.60;28.77;;;;;;;;;;5114499;27;20059;-66
2022/11/15 07:50:16;;;;;;;47.50;29.27;;;;;;;;;;5109130;27;20040;-66
2022/11/15 07:52:42;;;;;;;43.67;28.20;;;;;;;;;;5119455;27;20508;-66
2022/11/15 07:55:08;;;;;;;44.22;28.95;;;;;;;;;;5116950;27;20044;-66
2022/11/15 07:57:34;;;;;;;42.97;27.98;;;;;;;;;;5116154;27;20463;-67
2022/11/15 08:00:00;;;;;;;44.58;28.17;;;;;;;;;;5113011;27;20078;-65
2022/11/15 08:02:26;;;;;;;43.13;28.17;;;;;;;;;;5093487;27;20075;-67
2022/11/15 08:04:52;;;;;;;45.10;27.45;;;;;;;;;;5117348;27;20101;-66
2022/11/15 08:07:18;;;;;;;42.45;27.50;;;;;;;;;;5112531;27;20055;-67
2022/11/15 08:09:44;;;;;;;41.42;27.67;;;;;;;;;;5116157;27;20055;-66
2022/11/15 08:12:10;;;;;;;42.65;28.08;;;;;;;;;;5106879;28;20092;-66
2022/11/15 08:14:36;;;;;;;42.55;27.65;;;;;;;;;;5113930;27;20039;-66
2022/11/15 08:17:02;;;;;;;44.55;27.98;;;;;;;;;;5106814;27;20035;-67
2022/11/15 08:19:28;;;;;;;38.88;26.73;;;;;;;;;;5115614;27;20039;-66
2022/11/15 08:21:54;;;;;;;43.92;27.73;;;;;;;;;;5110101;28;20043;-66
2022/11/15 08:24:20;;;;;;;39.80;27.58;;;;;;;;;;5116886;27;20047;-66
2022/11/15 08:26:46;;;;;;;38.92;27.42;;;;;;;;;;5099122;27;20050;-67
2022/11/15 08:29:12;;;;;;;39.05;27.83;;;;;;;;;;5118577;27;20410;-66
2022/11/15 08:31:38;;;;;;;41.53;27.70;;;;;;;;;;5130759;27;20055;-66
2022/11/15 08:34:05;;;;;;;45.05;28.23;;;;;;;;;;5118195;27;20048;-67
2022/11/15 08:36:31;;;;;;;39.95;27.88;;;;;;;;;;5111935;27;20058;-66
2022/11/15 08:38:57;;;;;;;46.22;28.20;;;;;;;;;;5111383;27;20043;-66
2022/11/15 08:41:33;;;;;;;39.63;26.48;;;;;;;;;;5115139;27;20112;-66
2022/11/15 08:43:59;;;;;;;37.65;26.95;;;;;;;;;;5114385;27;20126;-66
2022/11/15 08:46:25;;;;;;;40.00;27.17;;;;;;;;;;5117252;27;20044;-66
2022/11/15 08:48:51;;;;;;;42.22;27.55;;;;;;;;;;5113385;27;20042;-66
2022/11/15 08:51:17;;;;;;;37.50;26.73;;;;;;;;;;5122021;27;20072;-66
2022/11/15 08:53:43;;;;;;;37.65;26.42;;;;;;;;;;5110459;27;20539;-66
2022/11/15 08:56:13;;;;;;;38.35;26.77;;;;;;;;;;5116489;27;20041;-66
2022/11/15 08:58:39;;;;;;;45.28;26.67;;;;;;;;;;5118212;27;20062;-67
2022/11/15 09:01:05;;;;;;;40.70;27.20;;;;;;;;;;5108005;27;20094;-69
2022/11/15 09:03:31;;;;;;;37.45;26.65;;;;;;;;;;5102683;27;20085;-66
2022/11/15 09:05:58;;;;;;;37.22;26.13;;;;;;;;;;5118099;27;20134;-66
2022/11/15 09:08:24;;;;;;;37.47;26.10;;;;;;;;;;5113089;27;20472;-66
2022/11/15 09:10:50;;;;;;;37.05;26.92;;;;;;;;;;5119436;27;20409;-66
2022/11/15 09:13:16;;;;;;;41.47;27.17;;;;;;;;;;5123961;27;20055;-68
2022/11/15 09:15:42;;;;;;;34.50;25.63;;;;;;;;;;5113442;27;20047;-66
2022/11/15 09:18:08;;;;;;;37.28;24.73;;;;;;;;;;5116481;27;20401;-66
2022/11/15 09:20:35;;;;;;;37.55;24.88;;;;;;;;;;5108328;28;20036;-66
2022/11/15 09:23:01;;;;;;;33.25;24.80;;;;;;;;;;5122663;27;20126;-69
2022/11/15 09:25:28;;;;;;;35.33;25.15;;;;;;;;;;5115707;27;20039;-68
2022/11/15 09:27:54;;;;;;;38.10;25.85;;;;;;;;;;5108279;27;20494;-69
2022/11/15 09:30:19;;;;;;;32.67;24.48;;;;;;;;;;5111881;27;20047;-68
2022/11/15 09:32:45;;;;;;;32.25;25.13;;;;;;;;;;5111526;27;20414;-67
2022/11/15 09:35:11;;;;;;;31.10;23.83;;;;;;;;;;5113137;27;20035;-67
2022/11/15 09:37:37;;;;;;;32.47;24.48;;;;;;;;;;5111079;27;20036;-68
2022/11/15 09:40:04;;;;;;;29.33;23.65;;;;;;;;;;5108684;27;20046;-69
2022/11/15 09:42:39;;;;;;;30.50;23.38;;;;;;;;;;5116787;27;20038;-67
2022/11/15 09:45:05;;;;;;;27.55;22.00;;;;;;;;;;5094694;28;20044;-66
2022/11/15 09:47:34;;;;;;;32.30;22.80;;;;;;;;;;5105029;28;20051;-66
2022/11/15 09:50:01;;;;;;;27.35;21.92;;;;;;;;;;5114922;27;20031;-67
2022/11/15 09:52:28;;;;;;;30.63;21.63;;;;;;;;;;5116792;27;20071;-66
2022/11/15 09:54:54;;;;;;;26.30;19.65;;;;;;;;;;5103970;27;20044;-66
2022/11/15 09:57:29;;;;;;;25.55;20.02;;;;;;;;;;5109821;27;20043;-68
2022/11/15 10:00:07;;;;;;;23.80;20.05;;;;;;;;;;5108634;27;20043;-67
2022/11/15 10:02:39;;;;;;;27.48;20.33;;;;;;;;;;5112041;27;20042;-67
2022/11/15 10:05:08;;;;;;;26.65;19.25;;;;;;;;;;5110853;27;20126;-66
2022/11/15 10:07:39;;;;;;;24.48;19.17;;;;;;;;;;5105920;28;20039;-66
2022/11/15 10:10:14;;;;;;;25.42;19.33;;;;;;;;;;5111688;27;20039;-67
2022/11/15 10:12:43;;;;;;;19.92;17.83;;;;;;;;;;5106068;28;20040;-66
2022/11/15 10:15:13;;;;;;;21.52;17.40;;;;;;;;;;5118480;27;20051;-68
2022/11/15 10:17:51;;;;;;;21.40;17.55;;;;;;;;;;5100120;27;20401;-67
2022/11/15 10:20:20;;;;;;;22.25;17.60;;;;;;;;;;5109898;28;20533;-67
2022/11/15 10:22:47;;;;;;;19.55;15.98;;;;;;;;;;5093595;28;20047;-70
2022/11/15 10:25:17;;;;;;;20.77;16.08;;;;;;;;;;5112675;28;20079;-69
2022/11/15 10:27:44;;;;;;;18.33;15.75;;;;;;;;;;5098162;28;20059;-69
2022/11/15 10:30:12;;;;;;;19.48;16.27;;;;;;;;;;5109982;28;20040;-69
2022/11/15 10:32:38;;;;;;;17.45;14.90;;;;;;;;;;5112515;27;20047;-67
2022/11/15 10:35:21;;;;;;;18.85;15.25;;;;;;;;;;5105704;28;20043;-68
2022/11/15 10:37:48;;;;;;;20.73;15.38;;;;;;;;;;5109457;28;20114;-66
2022/11/15 10:40:18;;;;;;;21.40;16.67;;;;;;;;;;5106468;28;20035;-68
2022/11/15 10:42:44;;;;;;;18.73;16.42;;;;;;;;;;5113662;28;20051;-67
2022/11/15 10:45:30;;;;;;;20.20;14.80;;;;;;;;;;5110767;28;20055;-66
2022/11/15 10:48:20;;;;;;;18.52;13.73;;;;;;;;;;5112910;27;20394;-67
2022/11/15 10:50:47;;;;;;;16.67;11.98;;;;;;;;;;5111789;28;20529;-66
2022/11/15 10:53:17;;;;;;;13.55;9.93;;;;;;;;;;5114199;27;20083;-66
2022/11/15 10:55:46;;;;;;;10.02;8.30;;;;;;;;;;5105434;27;20126;-67
2022/11/15 10:58:27;;;;;;;9.07;7.28;;;;;;;;;;5101435;28;20051;-67
2022/11/15 11:00:54;;;;;;;11.18;6.80;;;;;;;;;;5102996;28;20039;-68
2022/11/15 11:03:30;;;;;;;10.98;5.00;;;;;;;;;;5109993;27;21241;-67
2022/11/15 11:06:07;;;;;;;10.40;5.40;;;;;;;;;;5096905;28;20134;-68
2022/11/15 11:08:33;;;;;;;6.65;4.80;;;;;;;;;;5096418;28;20035;-66
2022/11/15 11:11:00;;;;;;;7.97;4.53;;;;;;;;;;5096092;28;20038;-68
2022/11/15 11:13:31;;;;;;;9.45;4.05;;;;;;;;;;5108410;27;20052;-68
2022/11/15 11:16:03;;;;;;;6.60;3.42;;;;;;;;;;5101747;27;20568;-68
2022/11/15 11:18:59;;;;;;;8.38;4.10;;;;;;;;;;5095087;28;20074;-67
2022/11/15 11:21:43;;;;;;;10.25;3.60;;;;;;;;;;5038599;27;20102;-66
2022/11/15 11:24:14;;;;;;;7.65;3.70;;;;;;;;;;5096411;28;21311;-68
2022/11/15 11:26:43;;;;;;;9.82;3.90;;;;;;;;;;5103098;27;20122;-67
2022/11/15 11:29:18;;;;;;;5.03;3.53;;;;;;;;;;5096417;27;20058;-68
2022/11/15 11:31:50;;;;;;;6.90;3.83;;;;;;;;;;5103275;27;20043;-66
2022/11/15 11:34:19;;;;;;;11.45;4.05;;;;;;;;;;5111681;27;20052;-66
2022/11/15 11:37:01;;;;;;;7.68;3.92;;;;;;;;;;5117903;27;20130;-66
2022/11/15 11:39:50;;;;;;;5.78;3.40;;;;;;;;;;5101269;27;20165;-68
2022/11/15 11:42:35;;;;;;;7.53;4.07;;;;;;;;;;5063757;28;20092;-68
2022/11/15 11:45:10;;;;;;;7.82;4.55;;;;;;;;;;5096640;28;20189;-67
2022/11/15 11:47:39;;;;;;;8.82;4.97;;;;;;;;;;5100069;28;20455;-65
2022/11/15 11:50:11;;;;;;;10.35;5.20;;;;;;;;;;5100695;28;20039;-66
2022/11/15 11:52:49;;;;;;;8.85;5.00;;;;;;;;;;5098881;27;20115;-68
2022/11/15 11:55:18;;;;;;;6.18;4.85;;;;;;;;;;5098657;28;20160;-66
2022/11/15 11:57:59;;;;;;;6.30;4.43;;;;;;;;;;5090623;27;20040;-67
2022/11/15 12:00:31;;;;;;;6.35;3.97;;;;;;;;;;5102809;27;20039;-67
2022/11/15 12:03:08;;;;;;;7.45;4.03;;;;;;;;;;5100711;27;20050;-66
2022/11/15 12:05:55;;;;;;;6.50;3.90;;;;;;;;;;5098182;27;20069;-67
2022/11/15 12:08:49;;;;;;;9.48;3.97;;;;;;;;;;5095722;28;20040;-68
2022/11/15 12:11:18;;;;;;;7.10;3.72;;;;;;;;;;5095058;27;20031;-67
2022/11/15 12:13:45;;;;;;;11.10;3.47;;;;;;;;;;5095947;28;20044;-68
2022/11/15 12:16:23;;;;;;;4.50;2.80;;;;;;;;;;5096177;27;20039;-67
2022/11/15 12:18:50;;;;;;;5.75;3.40;;;;;;;;;;5099179;28;20543;-66
2022/11/15 12:21:16;;;;;;;7.38;3.60;;;;;;;;;;5094383;27;20047;-67
2022/11/15 12:23:48;;;;;;;7.60;3.45;;;;;;;;;;5098536;27;20039;-68
2022/11/15 12:26:19;;;;;;;8.60;3.40;;;;;;;;;;5101053;27;20046;-67
2022/11/15 12:28:54;;;;;;;17.83;4.00;;;;;;;;;;5101561;27;20054;-67
2022/11/15 12:31:30;;;;;;;5.20;3.15;;;;;;;;;;5100067;27;20054;-66
2022/11/15 12:33:57;;;;;;;6.35;3.03;;;;;;;;;;5098213;27;20375;-68
2022/11/15 12:36:23;;;;;;;5.93;3.35;;;;;;;;;;5099163;27;20051;-68
2022/11/15 12:38:52;;;;;;;4.93;3.30;;;;;;;;;;5099562;27;20040;-67
2022/11/15 12:41:19;;;;;;;6.97;3.28;;;;;;;;;;5095663;27;20044;-66
2022/11/15 12:43:46;;;;;;;9.40;3.03;;;;;;;;;;5101257;27;20405;-68
2022/11/15 12:46:14;;;;;;;15.55;3.20;;;;;;;;;;5097410;28;20047;-67
2022/11/15 12:48:40;;;;;;;3.90;2.50;;;;;;;;;;5081932;28;20051;-67
2022/11/15 12:51:06;;;;;;;4.03;2.15;;;;;;;;;;5098671;27;20370;-66
2022/11/15 12:53:33;;;;;;;6.18;2.20;;;;;;;;;;5093974;27;20437;-68
2022/11/15 12:56:08;;;;;;;5.03;2.50;;;;;;;;;;5077356;28;20032;-68
2022/11/15 12:58:41;;;;;;;4.43;2.10;;;;;;;;;;5097541;27;20516;-66
2022/11/15 13:01:08;;;;;;;4.40;2.08;;;;;;;;;;5097056;27;20080;-66
2022/11/15 13:04:01;;;;;;;4.25;2.10;;;;;;;;;;5109765;28;20051;-68
2022/11/15 13:07:07;;;;;;;4.55;1.85;;;;;;;;;;5094666;27;20047;-67
2022/11/15 13:09:36;;;;;;;4.82;2.05;;;;;;;;;;5097439;27;20055;-66
2022/11/15 13:12:21;;;;;;;3.25;1.95;;;;;;;;;;5094739;27;20048;-65
2022/11/15 13:14:53;;;;;;;3.63;1.70;;;;;;;;;;5091084;27;21244;-66
2022/11/15 13:17:19;;;;;;;5.68;2.30;;;;;;;;;;5062005;22;20446;-68
2022/11/15 13:19:58;;;;;;;3.05;1.73;;;;;;;;;;5062134;28;20037;-66
2022/11/15 13:25:32;;;;;;;3.65;1.88;;;;;;;;;;5057100;28;20048;-67
2022/11/15 13:27:58;;;;;;;5.68;1.65;;;;;;;;;;5046608;28;20036;-67
2022/11/15 13:30:30;;;;;;;3.65;1.52;;;;;;;;;;5056051;28;20119;-66
2022/11/15 13:32:56;;;;;;;4.75;1.80;;;;;;;;;;5060017;28;20041;-66
2022/11/15 13:35:26;;;;;;;4.43;1.50;;;;;;;;;;5057724;28;20503;-67
2022/11/15 13:37:53;;;;;;;3.50;1.27;;;;;;;;;;5059645;28;20534;-66
2022/11/15 13:40:32;;;;;;;3.40;1.20;;;;;;;;;;5053159;28;20045;-66
2022/11/15 13:42:58;;;;;;;3.75;1.13;;;;;;;;;;5057307;28;20063;-67
2022/11/15 13:45:26;;;;;;;3.00;1.10;;;;;;;;;;5070412;28;20052;-67
2022/11/15 13:48:02;;;;;;;4.75;1.00;;;;;;;;;;5065000;28;20376;-67
2022/11/15 13:50:54;;;;;;;2.42;1.10;;;;;;;;;;5063207;28;20470;-67
2022/11/15 13:53:20;;;;;;;2.53;1.25;;;;;;;;;;5054552;28;20522;-68
2022/11/15 13:55:46;;;;;;;2.95;1.20;;;;;;;;;;5060451;28;20453;-66
2022/11/15 13:58:12;;;;;;;3.83;1.15;;;;;;;;;;5058344;28;20040;-68
2022/11/15 14:00:39;;;;;;;4.20;1.25;;;;;;;;;;5056012;28;20999;-67
2022/11/15 14:03:07;;;;;;;6.20;1.50;;;;;;;;;;5056786;28;20040;-67
2022/11/15 14:05:33;;;;;;;2.55;1.20;;;;;;;;;;5055899;28;20060;-68
2022/11/15 14:08:19;;;;;;;2.30;1.30;;;;;;;;;;5061060;28;20156;-67
2022/11/15 14:10:45;;;;;;;3.28;1.40;;;;;;;;;;5029320;28;20171;-68
2022/11/15 14:13:26;;;;;;;3.55;1.30;;;;;;;;;;5058680;28;20068;-66
2022/11/15 14:15:52;;;;;;;4.07;1.25;;;;;;;;;;5058781;28;20102;-68
2022/11/15 14:18:37;;;;;;;5.13;1.27;;;;;;;;;;5057756;28;20040;-68
2022/11/15 14:21:08;;;;;;;5.15;1.50;;;;;;;;;;5063768;28;20036;-66
2022/11/15 14:23:34;;;;;;;1.48;1.33;;;;;;;;;;5074262;28;20045;-66
2022/11/15 14:26:00;;;;;;;4.45;1.50;;;;;;;;;;5057043;28;20610;-66
2022/11/15 14:28:26;;;;;;;2.90;1.67;;;;;;;;;;5057402;28;20048;-67
2022/11/15 14:30:53;;;;;;;3.72;1.75;;;;;;;;;;5058424;28;20059;-67
2022/11/15 14:33:21;;;;;;;4.38;1.88;;;;;;;;;;5041941;28;20049;-67
2022/11/15 14:35:47;;;;;;;6.55;2.10;;;;;;;;;;5059444;28;20076;-67
2022/11/15 14:38:14;;;;;;;4.72;2.22;;;;;;;;;;5058241;28;20094;-66
2022/11/15 14:40:40;;;;;;;3.92;2.40;;;;;;;;;;5061655;28;20045;-67
2022/11/15 14:43:08;;;;;;;3.22;2.40;;;;;;;;;;5058907;28;20078;-66
2022/11/15 14:45:35;;;;;;;4.50;2.70;;;;;;;;;;5059737;28;20565;-66
2022/11/15 14:48:01;;;;;;;7.10;3.03;;;;;;;;;;5058354;28;20109;-68
2022/11/15 14:50:27;;;;;;;9.35;3.65;;;;;;;;;;5063427;28;20059;-66
2022/11/15 14:52:53;;;;;;;126.65;9.90;;;;;;;;;;5059798;28;20044;-68
2022/11/15 14:55:21;;;;;;;257.80;18.40;;;;;;;;;;5060781;28;20088;-67